createdAt,value
2024-02-29T00:02:00.003Z,4.00
2024-02-29T00:04:26.632Z,3.50
2024-02-29T00:06:53.047Z,1.45
2024-02-29T00:09:19.428Z,5.50
2024-02-29T00:11:45.884Z,1.40
2024-02-29T00:14:12.331Z,1.98
2024-02-29T00:16:39.126Z,2.85
2024-02-29T00:19:05.485Z,3.63
2024-02-29T00:21:31.903Z,4.22
2024-02-29T00:23:58.277Z,4.05
2024-02-29T00:26:24.618Z,3.28
2024-02-29T00:28:50.936Z,1.95
2024-02-29T00:31:17.383Z,2.25
2024-02-29T00:33:43.860Z,1.83
2024-02-29T00:36:10.673Z,2.80
2024-02-29T00:38:37.694Z,2.88
2024-02-29T00:41:04.157Z,0.98
2024-02-29T00:43:30.534Z,2.50
2024-02-29T00:45:57.148Z,5.25
2024-02-29T00:48:23.518Z,2.10
2024-02-29T00:50:49.903Z,2.25
2024-02-29T00:53:16.294Z,2.85
2024-02-29T00:55:42.639Z,2.42
2024-02-29T00:58:09.207Z,2.88
2024-02-29T01:00:35.771Z,0.68
2024-02-29T01:03:02.445Z,6.30
2024-02-29T01:05:28.838Z,2.20
2024-02-29T01:07:55.277Z,3.80
2024-02-29T01:10:21.764Z,2.35
2024-02-29T01:12:48.218Z,2.25
2024-02-29T01:15:14.619Z,4.35
2024-02-29T01:17:41.875Z,4.18
2024-02-29T01:20:08.522Z,2.88
2024-02-29T01:22:35.592Z,1.85
2024-02-29T01:25:02.253Z,1.17
2024-02-29T01:27:28.879Z,3.50
2024-02-29T01:29:55.235Z,1.80
2024-02-29T01:32:26.616Z,1.60
2024-02-29T01:34:54.605Z,2.58
2024-02-29T01:37:21.120Z,1.98
2024-02-29T01:39:47.468Z,5.15
2024-02-29T01:42:13.984Z,3.72
2024-02-29T01:44:51.667Z,3.22
2024-02-29T01:47:17.991Z,2.90
2024-02-29T01:49:45.346Z,2.33
2024-02-29T01:52:12.034Z,2.15
2024-02-29T01:54:38.772Z,4.47
2024-02-29T01:57:05.531Z,5.97
2024-02-29T01:59:32.349Z,2.42
2024-02-29T02:01:58.842Z,3.42
2024-02-29T02:04:25.198Z,2.42
2024-02-29T02:06:51.575Z,2.15
2024-02-29T02:09:20.853Z,2.55
2024-02-29T02:11:47.236Z,3.50
2024-02-29T02:14:13.591Z,4.28
2024-02-29T02:16:39.979Z,2.42
2024-02-29T02:19:11.669Z,2.25
2024-02-29T02:24:04.429Z,2.88
2024-02-29T02:26:30.792Z,3.50
2024-02-29T02:28:57.165Z,2.45
2024-02-29T02:31:23.576Z,2.35
2024-02-29T02:33:49.964Z,5.78
2024-02-29T02:36:16.334Z,2.80
2024-02-29T02:38:42.694Z,3.95
2024-02-29T02:41:09.013Z,3.08
2024-02-29T02:43:35.347Z,4.32
2024-02-29T02:46:01.791Z,4.45
2024-02-29T02:48:28.240Z,3.78
2024-02-29T02:50:54.577Z,2.45
2024-02-29T02:53:21.116Z,2.58
2024-02-29T02:55:47.533Z,6.05
2024-02-29T02:58:13.969Z,5.20
2024-02-29T03:00:40.664Z,3.90
2024-02-29T03:03:07.153Z,9.65
2024-02-29T03:05:33.519Z,5.07
2024-02-29T03:07:59.957Z,3.25
2024-02-29T03:10:26.468Z,3.80
2024-02-29T03:12:52.806Z,2.75
2024-02-29T03:15:19.139Z,2.13
2024-02-29T03:17:45.566Z,8.73
2024-02-29T03:20:12.040Z,4.10
2024-02-29T03:22:38.948Z,7.53
2024-02-29T03:25:05.515Z,2.75
2024-02-29T03:27:32.044Z,10.00
2024-02-29T03:29:58.538Z,8.32
2024-02-29T03:32:24.935Z,4.10
2024-02-29T03:34:51.330Z,3.55
2024-02-29T03:37:17.775Z,4.57
2024-02-29T03:39:44.210Z,5.50
2024-02-29T03:42:10.719Z,6.55
2024-02-29T03:44:37.107Z,4.07
2024-02-29T03:47:03.465Z,6.07
2024-02-29T03:49:29.803Z,6.75
2024-02-29T03:51:56.243Z,5.47
2024-02-29T03:54:22.597Z,5.43
2024-02-29T03:56:49.023Z,6.75
2024-02-29T03:59:15.427Z,7.28
2024-02-29T04:01:47.365Z,4.15
2024-02-29T04:04:13.896Z,7.82
2024-02-29T04:06:40.434Z,6.05
2024-02-29T04:09:06.773Z,11.05
2024-02-29T04:11:33.153Z,5.60
2024-02-29T04:13:59.556Z,5.47
2024-02-29T04:16:26.002Z,5.32
2024-02-29T04:18:52.431Z,7.38
2024-02-29T04:21:18.857Z,9.27
2024-02-29T04:23:45.248Z,6.75
2024-02-29T04:26:11.606Z,4.47
2024-02-29T04:28:37.951Z,4.85
2024-02-29T04:31:05.121Z,11.95
2024-02-29T04:33:31.536Z,5.88
2024-02-29T04:35:57.969Z,7.15
2024-02-29T04:38:24.365Z,6.78
2024-02-29T04:40:50.730Z,12.13
2024-02-29T04:43:17.165Z,8.43
2024-02-29T04:45:43.642Z,5.18
2024-02-29T04:48:10.119Z,5.63
2024-02-29T04:50:36.575Z,4.75
2024-02-29T04:53:02.905Z,9.68
2024-02-29T04:55:29.307Z,8.68
2024-02-29T04:57:55.720Z,14.32
2024-02-29T05:00:22.095Z,8.02
2024-02-29T05:02:48.427Z,5.90
2024-02-29T05:05:15.019Z,8.23
2024-02-29T05:07:41.402Z,10.38
2024-02-29T05:10:08.349Z,5.97
2024-02-29T05:12:34.928Z,6.03
2024-02-29T05:15:01.339Z,5.25
2024-02-29T05:17:27.717Z,8.88
2024-02-29T05:19:54.162Z,6.97
2024-02-29T05:22:21.150Z,4.63
2024-02-29T05:24:47.604Z,5.78
2024-02-29T05:27:14.103Z,4.30
2024-02-29T05:29:40.504Z,9.05
2024-02-29T05:32:07.125Z,4.57
2024-02-29T05:34:33.573Z,8.13
2024-02-29T05:36:59.992Z,5.53
2024-02-29T05:39:26.420Z,6.85
2024-02-29T05:41:52.804Z,8.50
2024-02-29T05:44:19.122Z,8.40
2024-02-29T05:46:45.498Z,5.60
2024-02-29T05:49:12.006Z,3.63
2024-02-29T05:51:38.481Z,7.50
2024-02-29T05:54:04.971Z,3.65
2024-02-29T05:56:31.327Z,7.10
2024-02-29T05:58:57.702Z,6.07
2024-02-29T06:01:24.138Z,5.20
2024-02-29T06:03:50.621Z,4.00
2024-02-29T06:06:17.124Z,3.85
2024-02-29T06:08:43.504Z,2.58
2024-02-29T06:11:13.751Z,4.35
2024-02-29T06:13:40.190Z,4.63
2024-02-29T06:16:06.985Z,4.38
2024-02-29T06:18:33.584Z,3.08
2024-02-29T06:20:59.980Z,3.17
2024-02-29T06:23:26.309Z,3.55
2024-02-29T06:25:52.654Z,2.38
2024-02-29T06:28:22.928Z,2.17
2024-02-29T06:33:16.961Z,5.30
2024-02-29T06:35:43.420Z,2.75
2024-02-29T06:38:09.856Z,3.85
2024-02-29T06:40:36.265Z,2.45
2024-02-29T06:43:02.753Z,5.20
2024-02-29T06:45:29.127Z,7.28
2024-02-29T06:47:55.548Z,4.32
2024-02-29T06:50:21.927Z,3.38
2024-02-29T06:52:48.375Z,3.33
2024-02-29T06:55:15.255Z,2.35
2024-02-29T06:57:41.742Z,9.88
2024-02-29T07:00:08.401Z,3.22
2024-02-29T07:02:34.832Z,3.97
2024-02-29T07:05:01.290Z,2.75
2024-02-29T07:07:27.672Z,2.13
2024-02-29T07:09:54.062Z,5.65
2024-02-29T07:12:20.675Z,3.30
2024-02-29T07:14:47.174Z,2.30
2024-02-29T07:17:13.625Z,2.33
2024-02-29T07:19:39.971Z,0.98
2024-02-29T07:22:06.861Z,3.67
2024-02-29T07:24:33.297Z,3.08
2024-02-29T07:26:59.706Z,2.90
2024-02-29T07:29:26.050Z,2.70
2024-02-29T07:31:54.838Z,2.55
2024-02-29T07:34:21.530Z,1.95
2024-02-29T07:36:48.016Z,1.55
2024-02-29T07:39:14.486Z,0.82
2024-02-29T07:41:41.191Z,1.58
2024-02-29T07:44:07.654Z,1.65
2024-02-29T07:46:34.059Z,2.33
2024-02-29T07:49:00.541Z,1.48
2024-02-29T07:51:27.022Z,2.47
2024-02-29T07:53:53.346Z,1.67
2024-02-29T07:56:19.781Z,3.97
2024-02-29T07:58:47.146Z,2.10
2024-02-29T08:01:14.243Z,1.58
2024-02-29T08:03:40.703Z,1.40
2024-02-29T08:06:07.314Z,1.20
2024-02-29T08:08:33.758Z,1.67
2024-02-29T08:11:00.117Z,2.45
2024-02-29T08:13:26.660Z,2.03
2024-02-29T08:15:53.186Z,1.77
2024-02-29T08:18:19.657Z,5.78
2024-02-29T08:20:46.052Z,1.38
2024-02-29T08:23:12.493Z,4.25
2024-02-29T08:25:38.965Z,3.38
2024-02-29T08:28:05.628Z,1.73
2024-02-29T08:30:32.075Z,2.10
2024-02-29T08:32:58.501Z,2.65
2024-02-29T08:35:24.943Z,2.03
2024-02-29T08:37:52.315Z,2.58
2024-02-29T08:40:19.715Z,2.03
2024-02-29T08:42:46.112Z,1.20
2024-02-29T08:45:12.542Z,0.60
2024-02-29T08:47:38.950Z,1.77
2024-02-29T08:50:05.595Z,3.92
2024-02-29T08:52:32.055Z,1.30
2024-02-29T08:54:58.667Z,1.98
2024-02-29T08:57:25.226Z,0.90
2024-02-29T08:59:51.632Z,2.95
2024-02-29T09:02:17.968Z,3.72
2024-02-29T09:04:44.390Z,2.95
2024-02-29T09:07:11.411Z,5.15
2024-02-29T09:09:37.935Z,2.25
2024-02-29T09:12:04.372Z,1.95
2024-02-29T09:14:30.771Z,3.10
2024-02-29T09:16:57.157Z,1.77
2024-02-29T09:19:23.744Z,2.65
2024-02-29T09:21:50.168Z,1.95
2024-02-29T09:24:16.572Z,5.18
2024-02-29T09:26:42.943Z,5.18
2024-02-29T09:29:09.370Z,1.65
2024-02-29T09:31:35.843Z,2.55
2024-02-29T09:34:02.195Z,2.85
2024-02-29T09:36:28.621Z,3.15
2024-02-29T09:38:55.012Z,2.53
2024-02-29T09:41:32.862Z,1.83
2024-02-29T09:44:09.269Z,1.95
2024-02-29T09:46:35.695Z,1.80
2024-02-29T09:49:02.275Z,2.35
2024-02-29T09:51:29.780Z,1.85
2024-02-29T09:53:56.533Z,1.35
2024-02-29T09:56:23.943Z,2.35
2024-02-29T09:58:51.936Z,1.88
2024-02-29T10:01:18.409Z,2.33
2024-02-29T10:03:45.909Z,1.42
2024-02-29T10:06:12.359Z,1.98
2024-02-29T10:08:38.930Z,1.60
2024-02-29T10:11:05.463Z,3.58
2024-02-29T10:13:41.912Z,2.20
2024-02-29T10:16:08.681Z,1.52
2024-02-29T10:18:35.727Z,1.25
2024-02-29T10:21:02.314Z,1.90
2024-02-29T10:23:31.824Z,0.82
2024-02-29T10:25:58.347Z,1.15
2024-02-29T10:28:24.808Z,0.73
2024-02-29T10:30:51.434Z,1.23
2024-02-29T10:33:17.858Z,3.15
2024-02-29T10:35:44.267Z,1.48
2024-02-29T10:38:10.689Z,1.23
2024-02-29T10:40:37.161Z,1.67
2024-02-29T10:43:03.759Z,0.85
2024-02-29T10:45:31.873Z,1.95
2024-02-29T10:48:02.070Z,1.52
2024-02-29T10:50:31.863Z,2.17
2024-02-29T10:53:27.705Z,0.85
2024-02-29T10:55:57.821Z,1.88
2024-02-29T10:58:27.522Z,2.80
2024-02-29T11:00:54.023Z,2.53
2024-02-29T11:03:21.094Z,2.53
2024-02-29T11:05:47.990Z,1.30
2024-02-29T11:08:14.656Z,2.55
2024-02-29T11:10:40.985Z,1.00
2024-02-29T11:13:07.394Z,3.50
2024-02-29T11:15:33.886Z,1.23
2024-02-29T11:18:00.300Z,1.67
2024-02-29T11:20:26.786Z,2.03
2024-02-29T11:23:10.546Z,2.05
2024-02-29T11:25:42.311Z,1.30
2024-02-29T11:28:08.809Z,3.92
2024-02-29T11:30:35.192Z,3.15
2024-02-29T11:33:07.861Z,2.38
2024-02-29T11:35:34.282Z,1.85
2024-02-29T11:38:02.405Z,2.55
2024-02-29T11:40:29.422Z,2.78
2024-02-29T11:42:57.143Z,3.63
2024-02-29T11:45:23.908Z,3.45
2024-02-29T11:47:53.273Z,2.50
2024-02-29T11:50:19.852Z,2.53
2024-02-29T11:52:46.305Z,2.85
2024-02-29T11:55:13.316Z,2.90
2024-02-29T11:57:39.744Z,5.72
2024-02-29T12:00:08.993Z,4.22
2024-02-29T12:02:35.825Z,4.68
2024-02-29T12:05:02.335Z,3.83
2024-02-29T12:07:28.835Z,7.28
2024-02-29T12:09:55.314Z,3.85
2024-02-29T12:12:21.798Z,5.72
2024-02-29T12:14:48.378Z,6.43
2024-02-29T12:17:14.862Z,4.88
2024-02-29T12:19:41.273Z,5.07
2024-02-29T12:22:14.412Z,11.38
2024-02-29T12:24:41.037Z,8.63
2024-02-29T12:27:08.308Z,2.63
2024-02-29T12:29:34.722Z,10.00
2024-02-29T12:32:01.119Z,9.95
2024-02-29T12:34:27.843Z,13.75
2024-02-29T12:36:56.278Z,5.38
2024-02-29T12:39:22.716Z,7.78
2024-02-29T12:41:49.187Z,4.65
2024-02-29T12:44:15.666Z,4.43
2024-02-29T12:46:42.118Z,4.55
2024-02-29T12:49:08.551Z,7.13
2024-02-29T12:51:35.054Z,6.53
2024-02-29T12:54:01.431Z,6.15
2024-02-29T12:56:27.900Z,14.13
2024-02-29T12:58:54.321Z,10.05
2024-02-29T13:01:20.766Z,6.82
2024-02-29T13:03:47.326Z,5.95
2024-02-29T13:06:13.781Z,11.38
2024-02-29T13:08:40.200Z,10.00
2024-02-29T13:11:06.786Z,6.57
2024-02-29T13:13:33.415Z,7.85
2024-02-29T13:15:59.981Z,5.13
2024-02-29T13:18:26.358Z,11.65
2024-02-29T13:20:52.770Z,12.82
2024-02-29T13:23:19.180Z,7.10
2024-02-29T13:25:45.832Z,6.50
2024-02-29T13:28:12.323Z,7.95
2024-02-29T13:30:38.839Z,9.77
2024-02-29T13:33:05.362Z,6.18
2024-02-29T13:35:31.821Z,6.20
2024-02-29T13:37:58.273Z,10.95
2024-02-29T13:40:24.768Z,7.60
2024-02-29T13:42:51.223Z,9.10
2024-02-29T13:45:17.536Z,6.68
2024-02-29T13:47:48.472Z,7.05
2024-02-29T13:50:14.966Z,7.03
2024-02-29T13:52:41.354Z,8.45
2024-02-29T13:55:07.917Z,8.05
2024-02-29T13:57:34.370Z,7.10
2024-02-29T14:00:00.714Z,14.15
2024-02-29T14:02:27.071Z,9.98
2024-02-29T14:04:53.543Z,7.00
2024-02-29T14:07:20.117Z,8.45
2024-02-29T14:09:46.516Z,7.68
2024-02-29T14:12:12.897Z,8.27
2024-02-29T14:14:39.286Z,12.00
2024-02-29T14:17:05.670Z,11.90
2024-02-29T14:19:32.060Z,11.95
2024-02-29T14:21:58.497Z,8.93
2024-02-29T14:24:24.928Z,9.35
2024-02-29T14:26:51.402Z,10.65
2024-02-29T14:29:17.740Z,7.25
2024-02-29T14:31:44.306Z,9.10
2024-02-29T14:34:10.780Z,12.15
2024-02-29T14:36:39.522Z,11.07
2024-02-29T14:39:06.103Z,12.68
2024-02-29T14:41:32.507Z,8.23
2024-02-29T14:43:58.824Z,9.38
2024-02-29T14:46:25.289Z,6.90
2024-02-29T14:48:51.776Z,11.13
2024-02-29T14:51:18.139Z,7.05
2024-02-29T14:53:44.529Z,15.65
2024-02-29T14:56:10.995Z,8.48
2024-02-29T14:58:37.530Z,6.50
2024-02-29T15:01:04.203Z,6.93
2024-02-29T15:03:30.624Z,7.07
2024-02-29T15:05:57.007Z,9.18
2024-02-29T15:08:23.430Z,7.50
2024-02-29T15:10:49.790Z,7.93
2024-02-29T15:13:16.276Z,5.25
2024-02-29T15:15:42.737Z,5.47
2024-02-29T15:18:09.215Z,11.70
2024-02-29T15:20:35.588Z,8.88
2024-02-29T15:23:02.000Z,8.40
2024-02-29T15:25:28.484Z,11.45
2024-02-29T15:27:55.216Z,10.27
2024-02-29T15:30:21.785Z,16.63
2024-02-29T15:32:48.211Z,7.43
2024-02-29T15:35:14.680Z,11.50
2024-02-29T15:37:41.149Z,13.07
2024-02-29T15:40:07.962Z,8.23
2024-02-29T15:42:34.418Z,6.80
2024-02-29T15:45:01.009Z,10.68
2024-02-29T15:47:28.633Z,10.90
2024-02-29T15:49:54.997Z,18.25
2024-02-29T15:52:21.513Z,15.63
2024-02-29T15:54:48.008Z,11.95
2024-02-29T15:57:14.516Z,11.82
2024-02-29T15:59:40.936Z,13.23
2024-02-29T16:02:07.475Z,10.60
2024-02-29T16:04:33.986Z,11.95
2024-02-29T16:07:00.442Z,9.82
2024-02-29T16:09:26.964Z,5.05
2024-02-29T16:11:56.584Z,12.07
2024-02-29T16:14:23.809Z,5.00
2024-02-29T16:16:50.231Z,5.38
2024-02-29T16:19:16.656Z,14.18
2024-02-29T16:21:43.191Z,10.50
2024-02-29T16:24:09.672Z,8.48
2024-02-29T16:26:36.563Z,6.47
2024-02-29T16:29:03.039Z,11.32
2024-02-29T16:31:29.747Z,8.50
2024-02-29T16:33:56.157Z,12.15
2024-02-29T16:36:22.537Z,10.18
2024-02-29T16:38:49.097Z,6.00
2024-02-29T16:41:15.509Z,11.05
2024-02-29T16:43:41.999Z,7.07
2024-02-29T16:46:08.480Z,7.38
2024-02-29T16:48:34.855Z,6.88
2024-02-29T16:51:01.227Z,12.57
2024-02-29T16:53:27.642Z,8.18
2024-02-29T16:55:53.975Z,8.77
2024-02-29T16:58:20.373Z,7.55
2024-02-29T17:00:46.946Z,7.90
2024-02-29T17:03:13.425Z,11.23
2024-02-29T17:05:39.754Z,13.32
2024-02-29T17:08:06.643Z,6.32
2024-02-29T17:10:33.031Z,9.02
2024-02-29T17:12:59.974Z,8.15
2024-02-29T17:15:26.374Z,12.30
2024-02-29T17:17:52.829Z,5.95
2024-02-29T17:20:19.306Z,6.97
2024-02-29T17:22:45.746Z,8.98
2024-02-29T17:25:12.299Z,9.38
2024-02-29T17:27:38.784Z,10.02
2024-02-29T17:30:05.494Z,8.63
2024-02-29T17:32:31.841Z,11.55
2024-02-29T17:34:58.177Z,7.30
2024-02-29T17:37:26.379Z,6.50
2024-02-29T17:39:54.322Z,6.15
2024-02-29T17:42:20.772Z,10.25
2024-02-29T17:44:47.373Z,9.15
2024-02-29T17:47:16.467Z,10.75
2024-02-29T17:49:45.542Z,7.65
2024-02-29T17:52:14.601Z,10.70
2024-02-29T17:54:41.012Z,8.32
2024-02-29T17:57:07.534Z,6.25
2024-02-29T17:59:35.759Z,7.47
2024-02-29T18:02:04.975Z,7.57
2024-02-29T18:04:33.520Z,6.00
2024-02-29T18:07:00.169Z,5.32
2024-02-29T18:09:26.816Z,4.72
2024-02-29T18:11:59.412Z,5.82
2024-02-29T18:14:26.316Z,7.05
2024-02-29T18:16:55.117Z,6.63
2024-02-29T18:19:22.299Z,2.90
2024-02-29T18:21:49.400Z,7.43
2024-02-29T18:24:18.575Z,7.30
2024-02-29T18:27:00.975Z,4.15
2024-02-29T18:29:32.773Z,6.00
2024-02-29T18:32:01.861Z,9.20
2024-02-29T18:34:30.693Z,6.72
2024-02-29T18:36:58.426Z,6.80
2024-02-29T18:39:24.860Z,7.50
2024-02-29T18:42:00.912Z,5.72
2024-02-29T18:44:28.150Z,8.27
2024-02-29T18:46:57.496Z,3.92
2024-02-29T18:49:26.837Z,5.57
2024-02-29T18:51:56.026Z,5.32
2024-02-29T18:54:31.683Z,4.40
2024-02-29T18:57:09.259Z,5.68
2024-02-29T18:59:37.932Z,5.70
2024-02-29T19:02:06.887Z,10.27
2024-02-29T19:04:35.775Z,8.55
2024-02-29T19:07:02.969Z,4.95
2024-02-29T19:09:34.697Z,7.25
2024-02-29T19:14:28.213Z,7.68
2024-02-29T19:16:57.152Z,6.50
2024-02-29T19:19:24.331Z,7.65
2024-02-29T19:21:51.522Z,6.60
2024-02-29T19:24:20.376Z,7.07
2024-02-29T19:26:47.716Z,6.40
2024-02-29T19:29:16.592Z,13.43
2024-02-29T19:31:45.375Z,10.05
2024-02-29T19:34:14.208Z,10.80
2024-02-29T19:36:43.357Z,6.50
2024-02-29T19:39:11.804Z,6.57
2024-02-29T19:41:40.520Z,4.85
2024-02-29T19:44:07.571Z,7.75
2024-02-29T19:46:34.010Z,7.28
2024-02-29T19:49:02.898Z,7.47
2024-02-29T19:51:35.218Z,6.82
2024-02-29T19:54:04.005Z,6.68
2024-02-29T19:56:32.817Z,8.57
2024-02-29T19:59:01.228Z,7.53
2024-02-29T20:01:33.800Z,7.90
2024-02-29T20:04:02.707Z,9.30
2024-02-29T20:06:34.845Z,7.20
2024-02-29T20:09:01.581Z,7.28
2024-02-29T20:11:30.500Z,9.00
2024-02-29T20:13:59.258Z,9.73
2024-02-29T20:16:30.772Z,9.18
2024-02-29T20:19:02.893Z,6.65
2024-02-29T20:21:31.068Z,6.82
2024-02-29T20:24:05.290Z,10.00
2024-02-29T20:26:33.558Z,4.85
2024-02-29T20:29:01.753Z,9.02
2024-02-29T20:31:28.292Z,9.00
2024-02-29T20:33:54.852Z,8.65
2024-02-29T20:36:21.269Z,7.82
2024-02-29T20:38:48.171Z,8.63
2024-02-29T20:41:17.179Z,5.43
2024-02-29T20:43:58.666Z,3.80
2024-02-29T20:46:27.499Z,15.93
2024-02-29T20:48:53.961Z,5.43
2024-02-29T20:51:25.673Z,6.05
2024-02-29T20:56:26.293Z,6.70
2024-02-29T20:58:52.754Z,6.35
2024-02-29T21:01:25.492Z,7.55
2024-02-29T21:03:57.435Z,6.90
2024-02-29T21:06:26.058Z,5.85
2024-02-29T21:08:52.577Z,9.00
2024-02-29T21:11:21.732Z,4.75
2024-02-29T21:13:49.726Z,6.65
2024-02-29T21:16:16.421Z,7.22
2024-02-29T21:18:43.113Z,8.63
2024-02-29T21:21:16.363Z,5.60
2024-02-29T21:23:44.256Z,8.95
2024-02-29T21:26:18.603Z,9.32
2024-02-29T21:28:47.593Z,5.78
2024-02-29T21:31:14.209Z,6.22
2024-02-29T21:33:40.856Z,5.78
2024-02-29T21:36:16.523Z,5.00
2024-02-29T21:38:45.387Z,6.20
2024-02-29T21:41:14.010Z,4.60
2024-02-29T21:43:41.887Z,4.47
2024-02-29T21:46:09.986Z,7.28
2024-02-29T21:48:36.543Z,8.88
2024-02-29T21:51:02.892Z,6.28
2024-02-29T21:53:30.849Z,4.50
2024-02-29T21:55:57.223Z,5.00
2024-02-29T21:58:25.808Z,5.60
2024-02-29T22:00:52.294Z,4.13
2024-02-29T22:03:22.783Z,5.13
2024-02-29T22:05:51.413Z,6.50
2024-02-29T22:08:17.742Z,7.82
2024-02-29T22:10:45.719Z,6.25
2024-02-29T22:13:14.586Z,5.75
2024-02-29T22:15:42.257Z,6.63
2024-02-29T22:18:11.012Z,7.90
2024-02-29T22:20:38.731Z,5.88
2024-02-29T22:23:05.138Z,6.20
2024-02-29T22:25:31.528Z,6.10
2024-02-29T22:28:00.105Z,8.43
2024-02-29T22:30:26.492Z,8.43
2024-02-29T22:32:55.452Z,7.68
2024-02-29T22:35:23.705Z,8.30
2024-02-29T22:37:50.025Z,4.78
2024-02-29T22:40:21.122Z,11.00
2024-02-29T22:42:47.493Z,5.57
2024-02-29T22:45:15.798Z,4.40
2024-02-29T22:47:44.214Z,8.88
2024-02-29T22:50:13.021Z,9.20
2024-02-29T22:52:41.471Z,5.15
2024-02-29T22:55:09.752Z,9.93
2024-02-29T22:57:38.305Z,8.20
2024-02-29T23:00:06.755Z,7.13
2024-02-29T23:02:35.063Z,7.78
2024-02-29T23:05:03.450Z,6.53
2024-02-29T23:07:29.878Z,8.90
2024-02-29T23:09:56.651Z,5.30
2024-02-29T23:12:23.079Z,7.78
2024-02-29T23:14:49.436Z,7.75
2024-02-29T23:17:15.786Z,8.13
2024-02-29T23:19:42.249Z,5.97
2024-02-29T23:22:08.663Z,10.70
2024-02-29T23:24:35.043Z,11.45
2024-02-29T23:27:01.423Z,6.47
2024-02-29T23:29:27.796Z,9.82
2024-02-29T23:31:56.001Z,7.45
2024-02-29T23:34:23.841Z,6.25
2024-02-29T23:36:50.321Z,7.72
2024-02-29T23:39:16.748Z,11.27
2024-02-29T23:41:43.192Z,10.48
2024-02-29T23:44:09.562Z,10.25
2024-02-29T23:46:36.070Z,7.88
2024-02-29T23:49:02.455Z,6.70
2024-02-29T23:51:28.854Z,7.25
2024-02-29T23:53:55.197Z,6.68
2024-02-29T23:56:21.546Z,7.47
2024-02-29T23:58:47.910Z,8.90
